Time;durP1;ratioP1;P1;durP2;ratioP2;P2;SDS_P1;SDS_P2;PMS_P1;PMS_P2;Temp;Humidity;BMP_temperature;BMP_pressure;BME280_temperature;BME280_humidity;BME280_pressure;Samples;Min_cycle;Max_cycle;Signal;HPM_P1;HPM_P2
2021/09/18 00:00:28;;;;;;;8.57;6.17;;;9.80;95.00;;;;;;2068566;28;20190;-65
2021/09/18 00:01:29;;;;;;;9.13;6.53;;;9.80;95.00;;;;;;2072157;28;20182;-66
2021/09/18 00:02:29;;;;;;;8.77;6.27;;;9.80;94.90;;;;;;2072475;28;20217;-65
2021/09/18 00:03:30;;;;;;;8.53;6.23;;;9.80;94.80;;;;;;2072602;28;20178;-65
2021/09/18 00:04:32;;;;;;;9.57;6.80;;;9.80;94.80;;;;;;2072678;28;20220;-67
2021/09/18 00:05:33;;;;;;;9.18;6.70;;;9.80;94.90;;;;;;2071876;28;20549;-68
2021/09/18 00:06:34;;;;;;;8.98;6.60;;;9.80;95.00;;;;;;2072068;28;20185;-64
2021/09/18 00:07:35;;;;;;;10.10;7.28;;;9.70;94.90;;;;;;2071955;28;20181;-64
2021/09/18 00:08:36;;;;;;;9.80;6.43;;;9.70;95.00;;;;;;2072285;28;20235;-67
2021/09/18 00:09:37;;;;;;;10.10;6.47;;;9.70;95.00;;;;;;2072562;28;20185;-65
2021/09/18 00:10:37;;;;;;;11.57;6.60;;;9.80;94.90;;;;;;2072385;28;20195;-64
2021/09/18 00:11:38;;;;;;;8.27;6.80;;;9.80;94.90;;;;;;2072447;28;20713;-66
2021/09/18 00:12:39;;;;;;;7.97;6.60;;;9.80;95.00;;;;;;2072462;28;20212;-63
2021/09/18 00:13:39;;;;;;;8.73;6.63;;;9.70;94.90;;;;;;2073742;28;20658;-63
2021/09/18 00:14:40;;;;;;;9.37;6.97;;;9.70;95.00;;;;;;2073930;28;20208;-68
2021/09/18 00:15:41;;;;;;;9.50;6.90;;;9.70;95.00;;;;;;2074289;28;20599;-65
2021/09/18 00:16:42;;;;;;;9.07;6.83;;;9.70;95.50;;;;;;2074139;28;20611;-65
2021/09/18 00:17:42;;;;;;;8.60;6.97;;;9.70;95.00;;;;;;2074298;28;20605;-65
2021/09/18 00:18:43;;;;;;;9.27;6.60;;;9.70;95.00;;;;;;2074157;28;20228;-64
2021/09/18 00:19:44;;;;;;;8.10;6.33;;;9.70;95.00;;;;;;2074054;28;20596;-65
2021/09/18 00:20:44;;;;;;;9.53;6.50;;;9.70;95.10;;;;;;2074213;28;20186;-64
2021/09/18 00:21:45;;;;;;;8.47;6.47;;;9.70;95.10;;;;;;2074142;28;20185;-65
2021/09/18 00:22:46;;;;;;;8.20;6.33;;;9.70;95.10;;;;;;2074116;28;20212;-63
2021/09/18 00:23:46;;;;;;;8.37;6.47;;;9.70;95.20;;;;;;2071673;28;20186;-64
2021/09/18 00:24:47;;;;;;;8.17;6.67;;;9.60;95.10;;;;;;2070322;28;20177;-64
2021/09/18 00:25:48;;;;;;;9.87;6.80;;;9.70;95.10;;;;;;2070288;28;20193;-64
2021/09/18 00:26:49;;;;;;;8.60;6.63;;;9.70;95.10;;;;;;2071509;28;20220;-64
2021/09/18 00:27:49;;;;;;;8.23;6.60;;;9.70;95.10;;;;;;2073979;28;20268;-67
2021/09/18 00:28:50;;;;;;;7.70;5.83;;;9.70;95.10;;;;;;2073884;28;20196;-65
2021/09/18 00:29:51;;;;;;;9.00;6.60;;;9.70;95.00;;;;;;2074145;28;20192;-62
2021/09/18 00:30:52;;;;;;;9.03;6.57;;;9.70;95.00;;;;;;2073940;28;20201;-63
2021/09/18 00:31:52;;;;;;;9.63;6.47;;;9.60;95.00;;;;;;2074083;28;20212;-62
2021/09/18 00:32:53;;;;;;;7.63;6.33;;;9.60;95.50;;;;;;2074150;28;20196;-63
2021/09/18 00:33:54;;;;;;;8.53;6.47;;;9.60;95.00;;;;;;2074029;28;20196;-62
2021/09/18 00:34:54;;;;;;;8.10;5.90;;;9.60;94.90;;;;;;2074046;28;20209;-65
2021/09/18 00:35:55;;;;;;;10.00;6.20;;;9.60;94.80;;;;;;2074209;28;20182;-64
2021/09/18 00:36:56;;;;;;;7.07;5.87;;;9.60;94.80;;;;;;2074116;28;20706;-62
2021/09/18 00:37:57;;;;;;;6.68;5.85;;;9.60;94.70;;;;;;2073915;28;20197;-62
2021/09/18 00:38:58;;;;;;;8.53;6.27;;;9.50;94.60;;;;;;2074155;28;20191;-63
2021/09/18 00:39:59;;;;;;;8.00;6.27;;;9.50;94.60;;;;;;2074061;28;20671;-64
2021/09/18 00:40:59;;;;;;;8.93;5.83;;;9.50;94.70;;;;;;2074027;28;20181;-65
2021/09/18 00:42:00;;;;;;;8.27;6.13;;;9.50;94.70;;;;;;2073730;28;20227;-62
2021/09/18 00:43:01;;;;;;;7.55;5.43;;;9.50;94.70;;;;;;2074288;28;20187;-71
2021/09/18 00:44:02;;;;;;;7.30;5.80;;;9.50;94.80;;;;;;2068661;28;20202;-71
2021/09/18 00:45:03;;;;;;;8.07;6.30;;;9.40;94.70;;;;;;2065089;28;20194;-72
2021/09/18 00:46:04;;;;;;;7.15;5.93;;;9.40;94.80;;;;;;2057788;28;20244;-72
2021/09/18 00:47:05;;;;;;;7.05;5.68;;;9.30;94.80;;;;;;2066106;28;20179;-66
2021/09/18 00:48:06;;;;;;;7.93;5.43;;;9.30;94.80;;;;;;2066544;28;20672;-65
2021/09/18 00:49:06;;;;;;;7.70;6.20;;;9.30;94.80;;;;;;2066588;28;20186;-65
2021/09/18 00:50:08;;;;;;;8.23;5.93;;;9.20;94.80;;;;;;2066125;28;20184;-66
2021/09/18 00:51:09;;;;;;;6.38;5.20;;;9.20;94.80;;;;;;2065880;28;20190;-65
2021/09/18 00:52:09;;;;;;;8.10;6.00;;;9.20;94.90;;;;;;2066412;28;20190;-65
2021/09/18 00:53:10;;;;;;;8.83;5.73;;;9.20;95.00;;;;;;2066387;28;20183;-65
2021/09/18 00:54:13;;;;;;;7.53;6.13;;;9.20;95.00;;;;;;2065890;28;20275;-66
2021/09/18 00:55:14;;;;;;;9.43;6.13;;;9.10;94.90;;;;;;2065803;28;20221;-68
2021/09/18 00:56:17;;;;;;;9.32;6.85;;;9.10;95.00;;;;;;2065957;28;20268;-66
2021/09/18 00:57:18;;;;;;;8.13;6.47;;;9.10;95.30;;;;;;2065833;28;20178;-65
2021/09/18 00:58:19;;;;;;;9.30;7.10;;;9.10;95.50;;;;;;2057949;28;20356;-65
2021/09/18 00:59:22;;;;;;;8.67;6.43;;;9.10;95.70;;;;;;2065894;28;20232;-66
2021/09/18 01:00:23;;;;;;;9.95;6.35;;;9.00;95.90;;;;;;2066558;28;20438;-65
2021/09/18 01:01:24;;;;;;;10.37;6.67;;;9.00;96.10;;;;;;2066185;28;20307;-65
2021/09/18 01:02:24;;;;;;;8.73;6.40;;;8.90;96.30;;;;;;2066328;28;20688;-65
2021/09/18 01:03:25;;;;;;;7.97;6.50;;;8.90;96.30;;;;;;2066413;28;20182;-66
2021/09/18 01:04:26;;;;;;;9.47;6.03;;;9.00;96.30;;;;;;2066090;28;20196;-65
2021/09/18 01:05:27;;;;;;;9.40;6.73;;;8.90;96.20;;;;;;2066355;28;20636;-65
2021/09/18 01:06:31;;;;;;;11.00;6.17;;;8.90;96.10;;;;;;2065920;28;20244;-67
2021/09/18 01:07:31;;;;;;;8.38;5.85;;;8.90;96.00;;;;;;2058270;28;20191;-66
2021/09/18 01:08:32;;;;;;;8.43;6.67;;;8.90;95.90;;;;;;2066061;28;20181;-66
2021/09/18 01:09:33;;;;;;;10.05;6.45;;;8.90;95.90;;;;;;2066578;28;20186;-65
2021/09/18 01:10:34;;;;;;;9.20;6.60;;;8.90;95.80;;;;;;2066522;28;20189;-66
2021/09/18 01:11:35;;;;;;;7.97;6.23;;;8.90;95.70;;;;;;2066443;28;20174;-65
2021/09/18 01:13:00;;;;;;;9.63;6.83;;;8.90;95.70;;;;;;2066484;28;20217;-66
2021/09/18 01:14:00;;;;;;;8.32;5.78;;;8.90;95.70;;;;;;2066031;28;20566;-66
2021/09/18 01:15:01;;;;;;;8.50;6.57;;;8.90;95.80;;;;;;2065774;28;20220;-65
2021/09/18 01:16:02;;;;;;;7.07;5.90;;;8.80;95.70;;;;;;2066593;28;20189;-65
2021/09/18 01:17:03;;;;;;;10.77;7.07;;;8.80;95.70;;;;;;2066572;28;20224;-65
2021/09/18 01:18:06;;;;;;;9.57;6.77;;;8.90;95.80;;;;;;2066531;28;20216;-66
2021/09/18 01:19:07;;;;;;;8.88;6.85;;;8.80;95.80;;;;;;2066423;28;20208;-66
2021/09/18 01:20:08;;;;;;;10.00;7.00;;;8.80;95.80;;;;;;2066523;28;20192;-65
2021/09/18 01:21:09;;;;;;;8.32;6.28;;;8.80;95.70;;;;;;2066263;28;20178;-65
2021/09/18 01:22:11;;;;;;;10.40;6.97;;;8.80;95.70;;;;;;2065641;28;20661;-65
2021/09/18 01:23:22;;;;;;;9.10;6.65;;;8.80;95.80;;;;;;2065938;28;20492;-65
2021/09/18 01:24:23;;;;;;;10.10;6.65;;;8.80;95.80;;;;;;2065859;28;20259;-65
2021/09/18 01:25:29;;;;;;;8.80;7.10;;;8.70;95.70;;;;;;2056693;28;20183;-65
2021/09/18 01:26:38;;;;;;;10.35;6.88;;;8.70;95.70;;;;;;2065632;28;20182;-66
2021/09/18 01:27:38;;;;;;;8.65;6.35;;;8.70;95.70;;;;;;2066106;28;20242;-65
2021/09/18 01:28:40;;;;;;;8.87;6.47;;;8.70;95.80;;;;;;2066088;28;20650;-64
2021/09/18 01:29:44;;;;;;;8.85;6.35;;;8.70;95.80;;;;;;2065994;28;20189;-64
2021/09/18 01:30:45;;;;;;;9.63;6.35;;;8.70;95.80;;;;;;2066000;28;20177;-65
2021/09/18 01:31:47;;;;;;;8.67;6.53;;;8.70;95.90;;;;;;2065219;28;20660;-66
2021/09/18 01:32:49;;;;;;;8.85;6.47;;;8.70;95.80;;;;;;2065393;28;20241;-65
2021/09/18 01:33:51;;;;;;;9.60;6.35;;;8.70;95.80;;;;;;2065972;28;20182;-65
2021/09/18 01:34:51;;;;;;;10.75;7.05;;;8.70;95.80;;;;;;2065434;28;20217;-65
2021/09/18 01:35:52;;;;;;;9.13;6.97;;;8.60;95.80;;;;;;2065296;28;20193;-66
2021/09/18 01:36:53;;;;;;;8.40;6.27;;;8.60;95.80;;;;;;2065407;28;20192;-65
2021/09/18 01:37:54;;;;;;;8.73;6.22;;;8.60;95.80;;;;;;2065347;28;20236;-66
2021/09/18 01:38:55;;;;;;;8.77;6.53;;;8.60;95.80;;;;;;2065349;28;20201;-65
2021/09/18 01:39:56;;;;;;;10.00;6.53;;;8.60;95.90;;;;;;2066094;28;20439;-64
2021/09/18 01:40:57;;;;;;;9.70;6.50;;;8.60;96.00;;;;;;2065836;28;20178;-65
2021/09/18 01:41:57;;;;;;;11.63;7.43;;;8.50;96.00;;;;;;2065122;28;20185;-64
2021/09/18 01:42:59;;;;;;;9.17;6.67;;;8.50;96.20;;;;;;2065506;28;20188;-66
2021/09/18 01:44:00;;;;;;;8.40;6.22;;;8.50;95.80;;;;;;2066058;28;20612;-64
2021/09/18 01:45:00;;;;;;;9.40;5.97;;;8.50;95.80;;;;;;2066139;28;20185;-65
2021/09/18 01:46:01;;;;;;;7.80;5.47;;;8.50;95.70;;;;;;2066193;28;20273;-65
2021/09/18 01:47:02;;;;;;;8.03;5.60;;;8.40;95.60;;;;;;2066219;28;20366;-64
2021/09/18 01:48:07;;;;;;;7.37;5.37;;;8.40;95.60;;;;;;2066334;28;20193;-65
2021/09/18 01:49:13;;;;;;;8.77;5.93;;;8.40;95.50;;;;;;2066206;28;20464;-64
2021/09/18 01:50:46;;;;;;;9.68;6.25;;;8.30;95.50;;;;;;2066375;28;20273;-66
2021/09/18 01:52:04;;;;;;;8.90;6.07;;;8.30;95.60;;;;;;2066042;28;20620;-66
2021/09/18 01:53:07;;;;;;;10.00;5.53;;;8.30;95.70;;;;;;2065432;28;20719;-65
2021/09/18 01:54:10;;;;;;;6.78;5.68;;;8.30;95.80;;;;;;2065529;28;20208;-67
2021/09/18 01:55:11;;;;;;;8.70;5.97;;;8.30;95.90;;;;;;2065727;28;20214;-67
2021/09/18 01:56:12;;;;;;;7.90;5.93;;;8.20;95.80;;;;;;2065833;28;20236;-66
2021/09/18 01:57:12;;;;;;;7.25;6.10;;;8.20;95.90;;;;;;2065315;28;20404;-66
2021/09/18 01:58:13;;;;;;;8.97;6.00;;;8.20;95.80;;;;;;2065297;28;20654;-67
2021/09/18 01:59:14;;;;;;;6.53;5.40;;;8.20;95.80;;;;;;2065211;28;20258;-66
2021/09/18 02:00:16;;;;;;;8.33;6.07;;;8.20;95.80;;;;;;2065448;28;20183;-67
2021/09/18 02:01:17;;;;;;;8.63;6.30;;;8.20;95.80;;;;;;2065789;28;20180;-67
2021/09/18 02:02:17;;;;;;;7.77;5.47;;;8.20;95.80;;;;;;2065843;28;20192;-66
2021/09/18 02:03:19;;;;;;;7.63;5.90;;;8.10;95.80;;;;;;2065937;28;20600;-66
2021/09/18 02:04:19;;;;;;;8.52;6.40;;;8.10;95.80;;;;;;2065983;28;20176;-67
2021/09/18 02:05:25;;;;;;;10.20;6.93;;;8.10;95.90;;;;;;2065840;28;20532;-66
2021/09/18 02:06:27;;;;;;;8.15;6.05;;;8.10;95.90;;;;;;2065990;28;20164;-66
2021/09/18 02:07:27;;;;;;;6.25;4.95;;;8.10;95.80;;;;;;2065519;28;20731;-66
2021/09/18 02:08:28;;;;;;;9.07;6.50;;;8.00;95.80;;;;;;2065436;28;20187;-66
2021/09/18 02:09:29;;;;;;;9.57;6.30;;;8.00;95.90;;;;;;2066197;28;20714;-67
2021/09/18 02:10:30;;;;;;;10.60;6.70;;;8.00;95.90;;;;;;2066147;28;20180;-66
2021/09/18 02:11:31;;;;;;;11.10;6.68;;;8.10;96.00;;;;;;2065688;28;20239;-66
2021/09/18 02:12:32;;;;;;;7.68;5.72;;;8.00;96.10;;;;;;2065275;28;20249;-66
2021/09/18 02:13:33;;;;;;;8.93;6.63;;;8.10;96.10;;;;;;2065393;28;20192;-66
2021/09/18 02:14:35;;;;;;;9.83;6.57;;;8.10;96.10;;;;;;2065906;28;20196;-66
2021/09/18 02:15:36;;;;;;;9.00;6.68;;;8.00;96.00;;;;;;2065903;28;20186;-66
2021/09/18 02:16:37;;;;;;;9.85;7.15;;;8.00;96.00;;;;;;2066379;28;20178;-65
2021/09/18 02:17:38;;;;;;;8.63;6.33;;;8.00;95.90;;;;;;2065907;28;20262;-66
2021/09/18 02:18:39;;;;;;;10.43;6.57;;;8.00;95.90;;;;;;2065729;28;20182;-67
2021/09/18 02:19:40;;;;;;;10.33;6.17;;;8.10;95.90;;;;;;2065875;28;20189;-66
2021/09/18 02:20:41;;;;;;;7.77;6.53;;;8.10;95.80;;;;;;2066032;28;20341;-66
2021/09/18 02:21:42;;;;;;;8.70;6.18;;;8.10;95.90;;;;;;2065788;28;20183;-66
2021/09/18 02:22:43;;;;;;;13.13;7.47;;;8.00;96.00;;;;;;2065803;28;20200;-65
2021/09/18 02:23:44;;;;;;;11.18;6.97;;;8.00;96.10;;;;;;2065151;28;20178;-66
2021/09/18 02:24:44;;;;;;;12.03;7.33;;;8.00;96.10;;;;;;2065208;28;20177;-66
2021/09/18 02:25:45;;;;;;;11.03;6.87;;;8.00;96.00;;;;;;2065914;28;20194;-67
2021/09/18 02:26:46;;;;;;;10.30;6.20;;;8.00;96.00;;;;;;2065734;28;20185;-66
2021/09/18 02:27:47;;;;;;;9.03;6.07;;;8.00;96.00;;;;;;2065813;28;20676;-65
2021/09/18 02:28:48;;;;;;;9.20;5.93;;;8.00;95.90;;;;;;2065119;28;20229;-66
2021/09/18 02:29:48;;;;;;;8.70;5.80;;;8.00;95.80;;;;;;2065149;28;20180;-66
2021/09/18 02:30:49;;;;;;;9.50;6.47;;;8.00;95.90;;;;;;2065945;28;20191;-65
2021/09/18 02:31:50;;;;;;;9.50;5.87;;;7.90;95.90;;;;;;2065671;28;20210;-66
2021/09/18 02:32:51;;;;;;;8.20;6.17;;;7.90;95.90;;;;;;2065771;28;20238;-66
2021/09/18 02:33:52;;;;;;;8.45;6.13;;;7.90;96.00;;;;;;2065813;28;20180;-65
2021/09/18 02:34:52;;;;;;;7.90;6.20;;;7.90;96.00;;;;;;2065499;28;20704;-65
2021/09/18 02:35:53;;;;;;;7.47;5.60;;;7.90;96.00;;;;;;2065699;28;20200;-65
2021/09/18 02:36:54;;;;;;;8.00;5.97;;;7.80;95.90;;;;;;2065803;28;20184;-66
2021/09/18 02:37:56;;;;;;;7.63;5.63;;;7.90;95.90;;;;;;2065708;28;20552;-66
2021/09/18 02:38:56;;;;;;;7.72;6.05;;;7.80;96.00;;;;;;2062910;28;20196;-68
2021/09/18 02:39:57;;;;;;;8.83;6.27;;;7.80;96.10;;;;;;2065028;28;20236;-66
2021/09/18 02:40:58;;;;;;;8.97;6.03;;;7.80;96.00;;;;;;2065542;28;20199;-67
2021/09/18 02:41:59;;;;;;;8.70;6.17;;;7.80;96.10;;;;;;2065605;28;20234;-66
2021/09/18 02:43:00;;;;;;;10.07;6.90;;;7.80;96.00;;;;;;2065588;28;20171;-66
2021/09/18 02:44:01;;;;;;;9.00;6.40;;;7.80;95.80;;;;;;2065697;28;20186;-65
2021/09/18 02:45:03;;;;;;;11.63;6.60;;;7.90;95.90;;;;;;2065643;28;20193;-66
2021/09/18 02:46:04;;;;;;;7.38;5.65;;;7.80;95.90;;;;;;2065800;28;20190;-66
2021/09/18 02:47:05;;;;;;;8.57;6.47;;;7.80;96.00;;;;;;2065766;28;20578;-66
2021/09/18 02:48:05;;;;;;;9.80;6.10;;;7.80;96.00;;;;;;2065762;28;20174;-66
2021/09/18 02:49:06;;;;;;;8.07;5.80;;;7.70;96.10;;;;;;2065738;28;20582;-66
2021/09/18 02:50:10;;;;;;;8.10;6.23;;;7.70;96.10;;;;;;2065606;28;20214;-67
2021/09/18 02:51:11;;;;;;;7.07;5.28;;;7.70;96.10;;;;;;2064563;28;20604;-65
2021/09/18 02:52:12;;;;;;;8.30;5.90;;;7.60;96.00;;;;;;2065119;28;20195;-67
2021/09/18 02:53:13;;;;;;;9.33;6.40;;;7.60;96.00;;;;;;2065548;28;20207;-65
2021/09/18 02:54:13;;;;;;;8.87;6.07;;;7.60;96.00;;;;;;2065627;28;20217;-66
2021/09/18 02:55:14;;;;;;;9.03;6.40;;;7.60;96.00;;;;;;2065577;28;20214;-67
2021/09/18 02:56:15;;;;;;;8.05;6.30;;;7.60;96.00;;;;;;2065664;28;20186;-66
2021/09/18 02:57:16;;;;;;;9.80;6.63;;;7.60;96.10;;;;;;2065519;28;20595;-66
2021/09/18 02:58:16;;;;;;;12.63;6.67;;;7.60;96.10;;;;;;2065548;28;20181;-66
2021/09/18 02:59:17;;;;;;;11.77;6.33;;;7.60;96.10;;;;;;2065488;28;20176;-66
2021/09/18 03:00:18;;;;;;;9.43;6.53;;;7.60;96.40;;;;;;2065543;28;20182;-65
2021/09/18 03:01:19;;;;;;;9.43;6.10;;;7.60;96.30;;;;;;2065240;28;20222;-67
2021/09/18 03:02:19;;;;;;;8.47;6.07;;;7.60;96.20;;;;;;2065623;28;20197;-65
2021/09/18 03:03:20;;;;;;;8.10;5.57;;;7.60;96.20;;;;;;2065553;28;20257;-65
2021/09/18 03:04:21;;;;;;;7.63;6.00;;;7.60;96.20;;;;;;2065620;28;20733;-66
2021/09/18 03:05:21;;;;;;;8.07;6.03;;;7.60;96.20;;;;;;2065343;28;20273;-66
2021/09/18 03:06:22;;;;;;;7.27;5.60;;;7.60;96.10;;;;;;2065742;28;20180;-67
2021/09/18 03:07:23;;;;;;;6.67;5.40;;;7.60;96.00;;;;;;2065508;28;20183;-66
2021/09/18 03:08:23;;;;;;;7.80;5.60;;;7.60;95.90;;;;;;2065512;28;20209;-66
2021/09/18 03:09:24;;;;;;;8.00;5.83;;;7.60;96.00;;;;;;2065472;28;20193;-65
2021/09/18 03:10:25;;;;;;;6.43;5.10;;;7.50;96.00;;;;;;2065394;28;20193;-66
2021/09/18 03:11:26;;;;;;;8.63;5.73;;;7.50;96.00;;;;;;2065238;28;20216;-66
2021/09/18 03:12:27;;;;;;;7.73;5.27;;;7.50;95.90;;;;;;2065446;28;20669;-66
2021/09/18 03:13:27;;;;;;;6.45;5.00;;;7.50;95.90;;;;;;2065585;28;20210;-66
2021/09/18 03:14:28;;;;;;;6.97;5.07;;;7.40;95.90;;;;;;2065388;28;20647;-66
2021/09/18 03:15:29;;;;;;;9.17;5.77;;;7.50;95.90;;;;;;2065467;28;20179;-65
2021/09/18 03:16:29;;;;;;;9.03;5.53;;;7.50;95.90;;;;;;2065280;28;20210;-65
2021/09/18 03:17:30;;;;;;;11.13;6.20;;;7.50;95.90;;;;;;2065380;28;20198;-65
2021/09/18 03:18:31;;;;;;;8.07;6.10;;;7.40;96.00;;;;;;2065286;28;20647;-66
2021/09/18 03:19:32;;;;;;;9.03;6.53;;;7.40;96.10;;;;;;2064911;28;20182;-66
2021/09/18 03:20:32;;;;;;;10.47;6.73;;;7.40;96.10;;;;;;2064730;28;20186;-66
2021/09/18 03:21:33;;;;;;;8.93;6.23;;;7.40;96.00;;;;;;2065294;28;20202;-66
2021/09/18 03:22:34;;;;;;;10.37;6.20;;;7.40;96.00;;;;;;2065421;28;20207;-65
2021/09/18 03:23:35;;;;;;;8.70;5.77;;;7.40;95.90;;;;;;2065258;28;20286;-66
2021/09/18 03:24:35;;;;;;;8.60;6.17;;;7.40;95.90;;;;;;2065387;28;20253;-65
2021/09/18 03:25:36;;;;;;;8.20;5.63;;;7.40;95.80;;;;;;2065396;28;20518;-66
2021/09/18 03:26:37;;;;;;;6.77;4.93;;;7.50;95.90;;;;;;2065316;28;20265;-66
2021/09/18 03:27:37;;;;;;;9.10;5.40;;;7.40;95.80;;;;;;2065290;28;20176;-66
2021/09/18 03:28:38;;;;;;;7.67;5.47;;;7.40;95.80;;;;;;2065293;28;20178;-65
2021/09/18 03:29:39;;;;;;;7.57;5.70;;;7.40;95.70;;;;;;2065404;28;20187;-65
2021/09/18 03:30:39;;;;;;;7.80;5.60;;;7.40;95.70;;;;;;2065301;28;20699;-66
2021/09/18 03:31:42;;;;;;;7.20;4.67;;;7.40;95.70;;;;;;2065165;28;20210;-66
2021/09/18 03:32:43;;;;;;;11.07;5.97;;;7.30;95.70;;;;;;2065369;28;20190;-66
2021/09/18 03:33:45;;;;;;;8.53;5.00;;;7.30;95.80;;;;;;2065193;28;20345;-66
2021/09/18 03:34:45;;;;;;;7.38;5.25;;;7.30;95.90;;;;;;2064491;28;20221;-66
2021/09/18 03:35:46;;;;;;;9.33;5.80;;;7.30;96.00;;;;;;2064803;28;20204;-65
2021/09/18 03:36:47;;;;;;;8.48;6.00;;;7.30;96.00;;;;;;2065231;28;20225;-67
2021/09/18 03:37:48;;;;;;;11.37;6.27;;;7.30;96.20;;;;;;2065187;28;20221;-65
2021/09/18 03:38:48;;;;;;;8.43;6.17;;;7.30;96.30;;;;;;2065072;28;20199;-65
2021/09/18 03:39:50;;;;;;;11.17;5.77;;;7.30;96.40;;;;;;2065243;28;20637;-66
2021/09/18 03:40:51;;;;;;;7.45;5.00;;;7.20;96.30;;;;;;2064553;28;20184;-67
2021/09/18 03:41:52;;;;;;;9.67;6.17;;;7.20;96.30;;;;;;2064551;28;20178;-66
2021/09/18 03:42:52;;;;;;;8.00;5.07;;;7.30;96.20;;;;;;2065068;28;20200;-65
2021/09/18 03:43:53;;;;;;;8.13;5.70;;;7.30;96.20;;;;;;2065181;28;20233;-66
2021/09/18 03:44:54;;;;;;;7.87;6.13;;;7.30;96.30;;;;;;2065149;28;20193;-65
2021/09/18 03:45:54;;;;;;;6.90;5.70;;;7.30;96.40;;;;;;2064980;28;20186;-65
2021/09/18 03:46:55;;;;;;;9.10;5.10;;;7.20;96.50;;;;;;2065060;28;20178;-67
2021/09/18 03:47:56;;;;;;;10.53;6.17;;;7.10;96.50;;;;;;2064630;28;20206;-67
2021/09/18 03:48:56;;;;;;;10.63;5.77;;;7.10;96.50;;;;;;2065009;28;20190;-66
2021/09/18 03:49:57;;;;;;;9.73;5.30;;;7.10;96.50;;;;;;2065010;28;20605;-67
2021/09/18 03:50:58;;;;;;;6.87;5.33;;;7.10;96.60;;;;;;2064944;28;20182;-66
2021/09/18 03:51:59;;;;;;;7.97;6.00;;;7.10;96.60;;;;;;2064691;28;20182;-66
2021/09/18 03:53:00;;;;;;;7.03;5.27;;;7.10;96.70;;;;;;2065078;28;20208;-66
2021/09/18 03:54:00;;;;;;;6.23;4.93;;;7.10;96.60;;;;;;2064963;28;20541;-66
2021/09/18 03:55:02;;;;;;;6.97;5.20;;;7.10;96.60;;;;;;2065029;28;20210;-66
2021/09/18 03:56:02;;;;;;;7.93;5.32;;;7.10;96.50;;;;;;2064352;28;20198;-65
2021/09/18 03:57:03;;;;;;;7.27;5.27;;;7.10;96.40;;;;;;2064512;28;20194;-66
2021/09/18 03:58:04;;;;;;;7.13;5.20;;;7.10;96.30;;;;;;2064967;28;20185;-66
2021/09/18 03:59:05;;;;;;;7.80;5.20;;;7.10;96.20;;;;;;2064972;28;20213;-65
2021/09/18 04:00:07;;;;;;;6.77;5.20;;;7.10;96.20;;;;;;2064866;28;20186;-66
2021/09/18 04:01:08;;;;;;;7.50;5.40;;;7.00;96.00;;;;;;2064684;28;20189;-66
2021/09/18 04:02:08;;;;;;;6.93;5.13;;;7.00;96.00;;;;;;2064984;28;20193;-66
2021/09/18 04:03:09;;;;;;;6.83;4.90;;;7.00;96.00;;;;;;2064940;28;20207;-65
2021/09/18 04:04:10;;;;;;;6.37;4.87;;;7.00;95.90;;;;;;2064937;28;20602;-67
2021/09/18 04:05:11;;;;;;;7.53;5.10;;;7.00;96.00;;;;;;2065000;28;20210;-65
2021/09/18 04:06:11;;;;;;;8.30;5.40;;;7.00;96.00;;;;;;2064740;28;20201;-66
2021/09/18 04:07:13;;;;;;;7.73;5.27;;;7.00;96.10;;;;;;2065012;28;20179;-66
2021/09/18 04:08:14;;;;;;;8.25;5.10;;;6.90;96.20;;;;;;2064906;28;20193;-66
2021/09/18 04:09:15;;;;;;;8.87;5.13;;;6.90;96.20;;;;;;2064896;28;20632;-66
2021/09/18 04:10:16;;;;;;;7.63;5.57;;;6.90;96.20;;;;;;2064845;28;20581;-66
2021/09/18 04:11:16;;;;;;;7.97;5.60;;;6.90;96.20;;;;;;2064627;28;20198;-66
2021/09/18 04:12:17;;;;;;;6.90;4.83;;;6.90;96.60;;;;;;2064804;28;20206;-66
2021/09/18 04:13:19;;;;;;;10.67;5.73;;;6.90;96.10;;;;;;2064995;28;20197;-66
2021/09/18 04:14:20;;;;;;;7.15;5.50;;;6.90;96.30;;;;;;2064869;28;20708;-67
2021/09/18 04:15:20;;;;;;;7.57;5.43;;;6.90;96.30;;;;;;2064818;28;20261;-65
2021/09/18 04:16:21;;;;;;;8.03;5.67;;;6.90;96.30;;;;;;2064786;28;20637;-66
2021/09/18 04:17:22;;;;;;;9.82;5.85;;;6.90;96.40;;;;;;2064970;28;20175;-67
2021/09/18 04:18:23;;;;;;;8.03;5.50;;;6.90;96.50;;;;;;2064867;28;20206;-66
2021/09/18 04:19:23;;;;;;;7.20;5.33;;;6.90;96.50;;;;;;2064866;28;20476;-66
2021/09/18 04:20:25;;;;;;;9.67;6.47;;;6.90;96.50;;;;;;2064903;28;20206;-66
2021/09/18 04:21:25;;;;;;;8.88;6.38;;;6.90;96.30;;;;;;2064543;28;20597;-66
2021/09/18 04:22:26;;;;;;;8.13;5.43;;;6.90;96.20;;;;;;2064740;28;20206;-66
2021/09/18 04:23:27;;;;;;;10.43;5.73;;;6.90;96.20;;;;;;2064774;28;20186;-66
2021/09/18 04:24:28;;;;;;;8.10;5.53;;;6.90;96.20;;;;;;2064994;28;20568;-65
2021/09/18 04:25:28;;;;;;;11.17;6.00;;;6.90;96.20;;;;;;2064864;28;20634;-65
2021/09/18 04:26:29;;;;;;;9.13;5.50;;;6.90;96.00;;;;;;2064862;28;20183;-66
2021/09/18 04:27:30;;;;;;;12.23;5.83;;;6.80;95.90;;;;;;2064850;28;20189;-66
2021/09/18 04:28:31;;;;;;;7.87;5.20;;;6.90;96.00;;;;;;2064880;28;20274;-66
2021/09/18 04:29:32;;;;;;;9.23;6.07;;;6.90;96.00;;;;;;2064840;28;20237;-66
2021/09/18 04:30:32;;;;;;;7.55;5.28;;;6.90;96.00;;;;;;2064867;28;20193;-66
2021/09/18 04:31:33;;;;;;;7.80;5.33;;;6.80;95.90;;;;;;2064541;28;20681;-65
2021/09/18 04:32:34;;;;;;;7.03;4.83;;;6.80;96.00;;;;;;2064680;28;20202;-66
2021/09/18 04:33:35;;;;;;;9.30;5.40;;;6.80;96.00;;;;;;2064863;28;20253;-66
2021/09/18 04:34:35;;;;;;;6.93;4.83;;;6.80;96.10;;;;;;2064797;28;20183;-65
2021/09/18 04:35:36;;;;;;;6.20;4.87;;;6.80;96.00;;;;;;2064851;28;20214;-66
2021/09/18 04:36:37;;;;;;;7.53;5.03;;;6.80;96.10;;;;;;2064822;28;20182;-67
2021/09/18 04:37:40;;;;;;;8.20;5.97;;;6.80;96.10;;;;;;2064590;28;20270;-66
2021/09/18 04:38:40;;;;;;;8.63;6.00;;;6.70;96.30;;;;;;2064781;28;20185;-68
2021/09/18 04:39:41;;;;;;;9.67;5.67;;;6.70;96.40;;;;;;2064834;28;20183;-66
2021/09/18 04:40:42;;;;;;;8.50;5.90;;;6.70;96.40;;;;;;2064857;28;20264;-67
2021/09/18 04:41:42;;;;;;;6.53;4.80;;;6.70;96.40;;;;;;2064645;28;20182;-67
2021/09/18 04:42:43;;;;;;;7.77;5.03;;;6.70;96.50;;;;;;2064759;28;20222;-66
2021/09/18 04:43:44;;;;;;;6.37;4.87;;;6.70;96.40;;;;;;2064696;28;20655;-66
2021/09/18 04:44:44;;;;;;;7.77;5.77;;;6.70;96.50;;;;;;2064823;28;20604;-66
2021/09/18 04:45:45;;;;;;;9.70;6.17;;;6.70;96.50;;;;;;2064792;28;20268;-66
2021/09/18 04:46:46;;;;;;;8.47;5.43;;;6.70;96.40;;;;;;2064748;28;20205;-65
2021/09/18 04:47:46;;;;;;;7.93;5.50;;;6.70;96.40;;;;;;2064783;28;20207;-66
2021/09/18 04:48:47;;;;;;;7.90;5.67;;;6.70;96.50;;;;;;2064723;28;20203;-66
2021/09/18 04:49:48;;;;;;;10.50;5.60;;;6.70;96.40;;;;;;2064791;28;20193;-65
2021/09/18 04:50:48;;;;;;;9.33;5.93;;;6.70;96.30;;;;;;2064920;28;20209;-66
2021/09/18 04:51:49;;;;;;;9.00;6.37;;;6.70;96.40;;;;;;2064563;28;20178;-66
2021/09/18 04:52:50;;;;;;;9.07;5.47;;;6.60;96.40;;;;;;2064822;28;20567;-66
2021/09/18 04:53:51;;;;;;;10.30;5.80;;;6.70;96.40;;;;;;2064678;28;20206;-67
2021/09/18 04:54:53;;;;;;;9.80;5.87;;;6.60;96.30;;;;;;2064684;28;20257;-66
2021/09/18 04:55:54;;;;;;;7.25;5.32;;;6.60;96.30;;;;;;2064757;28;20211;-66
2021/09/18 04:56:55;;;;;;;9.05;5.30;;;6.70;96.30;;;;;;2064790;28;20182;-66
2021/09/18 04:57:56;;;;;;;8.40;5.23;;;6.70;96.20;;;;;;2064674;28;20182;-66
2021/09/18 04:58:56;;;;;;;8.00;5.30;;;6.70;96.00;;;;;;2064736;28;20257;-66
2021/09/18 04:59:57;;;;;;;7.77;5.37;;;6.70;96.00;;;;;;2064607;28;20205;-67
2021/09/18 05:00:58;;;;;;;8.07;5.83;;;6.70;96.10;;;;;;2065856;28;20582;-66
2021/09/18 05:01:58;;;;;;;7.70;4.93;;;6.70;96.20;;;;;;2065963;28;20174;-65
2021/09/18 05:02:59;;;;;;;7.03;5.43;;;6.60;96.30;;;;;;2066139;28;20554;-67
2021/09/18 05:04:00;;;;;;;8.70;5.13;;;6.60;96.20;;;;;;2066213;28;20228;-66
2021/09/18 05:05:00;;;;;;;7.60;5.50;;;6.60;96.20;;;;;;2066109;28;20664;-66
2021/09/18 05:06:01;;;;;;;8.87;4.87;;;6.60;96.30;;;;;;2066131;28;20205;-67
2021/09/18 05:07:02;;;;;;;9.27;5.00;;;6.60;96.40;;;;;;2066149;28;20193;-66
2021/09/18 05:08:04;;;;;;;7.63;5.13;;;6.60;96.50;;;;;;2065616;28;20182;-65
2021/09/18 05:09:05;;;;;;;7.28;4.85;;;6.60;96.50;;;;;;2065539;28;20274;-67
2021/09/18 05:10:08;;;;;;;7.43;5.37;;;6.60;96.50;;;;;;2066113;28;20175;-66
2021/09/18 05:11:08;;;;;;;7.30;5.15;;;6.60;97.00;;;;;;2065899;28;20185;-66
2021/09/18 05:12:09;;;;;;;6.93;4.80;;;6.60;96.50;;;;;;2066081;28;20240;-66
2021/09/18 05:13:10;;;;;;;8.07;5.57;;;6.60;96.50;;;;;;2066099;28;20252;-65
2021/09/18 05:14:10;;;;;;;7.60;4.83;;;6.60;96.40;;;;;;2066224;28;20178;-65
2021/09/18 05:15:12;;;;;;;8.73;5.20;;;6.60;96.40;;;;;;2065915;28;20317;-66
2021/09/18 05:16:12;;;;;;;7.88;5.35;;;6.60;96.30;;;;;;2065537;28;20699;-66
2021/09/18 05:17:13;;;;;;;6.40;4.83;;;6.60;96.20;;;;;;2065502;28;20178;-66
2021/09/18 05:18:14;;;;;;;7.93;5.30;;;6.60;96.20;;;;;;2066157;28;20179;-65
2021/09/18 05:19:14;;;;;;;7.83;5.27;;;6.60;96.20;;;;;;2066096;28;20373;-65
2021/09/18 05:20:15;;;;;;;7.87;5.73;;;6.60;96.20;;;;;;2066099;28;20182;-66
2021/09/18 05:21:16;;;;;;;10.27;5.67;;;6.60;96.20;;;;;;2065703;28;20174;-66
2021/09/18 05:22:17;;;;;;;8.77;5.97;;;6.60;96.20;;;;;;2066040;28;20285;-65